sensor_id;sensor_type;location;lat;lon;timestamp;pressure;altitude;pressure_sealevel;temperature;humidity
19884;BME280;10104;50.732;10.174;2023-04-25T00:01:14;97055.91;;;9.58;90.01
19884;BME280;10104;50.732;10.174;2023-04-25T00:03:36;97056.53;;;9.60;89.52
19884;BME280;10104;50.732;10.174;2023-04-25T00:05:59;97061.19;;;9.58;89.99
19884;BME280;10104;50.732;10.174;2023-04-25T00:08:24;97063.44;;;9.48;90.53
19884;BME280;10104;50.732;10.174;2023-04-25T00:10:46;97057.50;;;9.39;89.63
19884;BME280;10104;50.732;10.174;2023-04-25T00:13:07;97062.81;;;9.39;88.94
19884;BME280;10104;50.732;10.174;2023-04-25T00:15:29;97059.53;;;9.24;89.59
19884;BME280;10104;50.732;10.174;2023-04-25T00:17:51;97059.53;;;9.24;89.33
19884;BME280;10104;50.732;10.174;2023-04-25T00:20:14;97050.38;;;9.20;89.96
19884;BME280;10104;50.732;10.174;2023-04-25T00:22:36;97055.25;;;9.23;89.86
19884;BME280;10104;50.732;10.174;2023-04-25T00:24:58;97053.25;;;9.25;90.13
19884;BME280;10104;50.732;10.174;2023-04-25T00:27:21;97050.81;;;9.30;89.65
19884;BME280;10104;50.732;10.174;2023-04-25T00:29:43;97046.56;;;9.36;89.51
19884;BME280;10104;50.732;10.174;2023-04-25T00:32:04;97047.34;;;9.29;89.63
19884;BME280;10104;50.732;10.174;2023-04-25T00:34:26;97048.38;;;9.42;89.39
19884;BME280;10104;50.732;10.174;2023-04-25T00:36:47;97052.88;;;9.54;88.40
19884;BME280;10104;50.732;10.174;2023-04-25T00:39:09;97045.34;;;9.51;88.40
19884;BME280;10104;50.732;10.174;2023-04-25T00:41:30;97043.50;;;9.58;87.75
19884;BME280;10104;50.732;10.174;2023-04-25T00:43:54;97044.53;;;9.57;87.02
19884;BME280;10104;50.732;10.174;2023-04-25T00:46:15;97036.81;;;9.49;87.42
19884;BME280;10104;50.732;10.174;2023-04-25T00:48:37;97041.44;;;9.27;88.61
19884;BME280;10104;50.732;10.174;2023-04-25T00:50:59;97045.50;;;9.23;88.60
19884;BME280;10104;50.732;10.174;2023-04-25T00:53:21;97035.34;;;9.07;89.54
19884;BME280;10104;50.732;10.174;2023-04-25T00:55:43;97033.91;;;9.05;89.45
19884;BME280;10104;50.732;10.174;2023-04-25T00:58:05;97045.03;;;8.93;90.33
19884;BME280;10104;50.732;10.174;2023-04-25T01:00:26;97039.53;;;8.95;89.95
19884;BME280;10104;50.732;10.174;2023-04-25T01:02:48;97039.97;;;8.99;89.48
19884;BME280;10104;50.732;10.174;2023-04-25T01:05:11;97044.03;;;8.95;89.60
19884;BME280;10104;50.732;10.174;2023-04-25T01:07:33;97044.03;;;8.95;88.69
19884;BME280;10104;50.732;10.174;2023-04-25T01:09:55;97042.78;;;8.90;89.19
19884;BME280;10104;50.732;10.174;2023-04-25T01:12:16;97040.53;;;8.81;88.92
19884;BME280;10104;50.732;10.174;2023-04-25T01:14:38;97041.34;;;8.81;88.92
19884;BME280;10104;50.732;10.174;2023-04-25T01:16:59;97047.41;;;8.75;86.65
19884;BME280;10104;50.732;10.174;2023-04-25T01:19:21;97042.09;;;8.69;88.04
19884;BME280;10104;50.732;10.174;2023-04-25T01:21:42;97040.66;;;8.66;88.05
19884;BME280;10104;50.732;10.174;2023-04-25T01:24:05;97043.28;;;8.66;87.64
19884;BME280;10104;50.732;10.174;2023-04-25T01:26:27;97033.56;;;8.67;87.61
19884;BME280;10104;50.732;10.174;2023-04-25T01:28:49;97038.88;;;8.73;88.17
19884;BME280;10104;50.732;10.174;2023-04-25T01:31:11;97039.88;;;8.72;87.94
19884;BME280;10104;50.732;10.174;2023-04-25T01:33:33;97044.16;;;8.73;88.41
19884;BME280;10104;50.732;10.174;2023-04-25T01:35:54;97040.25;;;8.63;88.04
19884;BME280;10104;50.732;10.174;2023-04-25T01:38:16;97032.31;;;8.56;89.04
19884;BME280;10104;50.732;10.174;2023-04-25T01:40:39;97038.00;;;8.60;90.17
19884;BME280;10104;50.732;10.174;2023-04-25T01:43:01;97040.06;;;8.71;89.36
19884;BME280;10104;50.732;10.174;2023-04-25T01:45:22;97035.53;;;8.58;90.47
19884;BME280;10104;50.732;10.174;2023-04-25T01:47:44;97040.19;;;8.49;86.43
19884;BME280;10104;50.732;10.174;2023-04-25T01:50:10;97034.53;;;8.59;85.18
19884;BME280;10104;50.732;10.174;2023-04-25T01:52:32;97042.94;;;8.35;84.97
19884;BME280;10104;50.732;10.174;2023-04-25T01:54:55;97041.94;;;8.36;82.57
19884;BME280;10104;50.732;10.174;2023-04-25T01:57:18;97043.38;;;8.38;83.72
19884;BME280;10104;50.732;10.174;2023-04-25T01:59:40;97050.25;;;8.39;83.02
19884;BME280;10104;50.732;10.174;2023-04-25T02:02:01;97041.97;;;8.42;81.14
19884;BME280;10104;50.732;10.174;2023-04-25T02:04:25;97051.09;;;8.40;82.77
19884;BME280;10104;50.732;10.174;2023-04-25T02:06:46;97051.09;;;8.40;82.39
19884;BME280;10104;50.732;10.174;2023-04-25T02:09:08;97051.19;;;8.25;82.36
19884;BME280;10104;50.732;10.174;2023-04-25T02:11:29;97056.41;;;8.46;81.50
19884;BME280;10104;50.732;10.174;2023-04-25T02:13:50;97053.31;;;8.36;82.33
19884;BME280;10104;50.732;10.174;2023-04-25T02:16:12;97056.16;;;8.41;81.91
19884;BME280;10104;50.732;10.174;2023-04-25T02:18:35;97048.88;;;8.43;80.47
19884;BME280;10104;50.732;10.174;2023-04-25T02:20:59;97048.91;;;8.50;80.84
19884;BME280;10104;50.732;10.174;2023-04-25T02:23:21;97058.88;;;8.55;79.72
19884;BME280;10104;50.732;10.174;2023-04-25T02:25:42;97057.03;;;8.48;79.32
19884;BME280;10104;50.732;10.174;2023-04-25T02:28:04;97053.97;;;8.45;80.03
19884;BME280;10104;50.732;10.174;2023-04-25T02:30:25;97051.53;;;8.43;79.77
19884;BME280;10104;50.732;10.174;2023-04-25T02:32:47;97054.91;;;8.31;80.00
19884;BME280;10104;50.732;10.174;2023-04-25T02:35:09;97049.38;;;8.26;80.46
19884;BME280;10104;50.732;10.174;2023-04-25T02:37:31;97053.78;;;8.19;81.72
19884;BME280;10104;50.732;10.174;2023-04-25T02:39:52;97053.97;;;8.17;81.07
19884;BME280;10104;50.732;10.174;2023-04-25T02:42:14;97050.38;;;8.25;80.42
19884;BME280;10104;50.732;10.174;2023-04-25T02:44:35;97046.31;;;8.29;79.45
19884;BME280;10104;50.732;10.174;2023-04-25T02:46:57;97045.72;;;8.27;78.85
19884;BME280;10104;50.732;10.174;2023-04-25T02:49:18;97043.66;;;8.22;77.34
19884;BME280;10104;50.732;10.174;2023-04-25T02:51:40;97045.59;;;8.07;79.18
19884;BME280;10104;50.732;10.174;2023-04-25T02:54:01;97047.97;;;8.30;79.35
19884;BME280;10104;50.732;10.174;2023-04-25T02:56:23;97046.44;;;8.42;77.83
19884;BME280;10104;50.732;10.174;2023-04-25T02:58:47;97044.09;;;8.26;77.74
19884;BME280;10104;50.732;10.174;2023-04-25T03:01:08;97041.78;;;8.44;77.25
19884;BME280;10104;50.732;10.174;2023-04-25T03:03:30;97040.81;;;8.58;75.72
19884;BME280;10104;50.732;10.174;2023-04-25T03:05:52;97037.06;;;8.80;74.20
19884;BME280;10104;50.732;10.174;2023-04-25T03:08:13;97038.69;;;8.81;73.34
19884;BME280;10104;50.732;10.174;2023-04-25T03:10:35;97042.56;;;8.85;72.05
19884;BME280;10104;50.732;10.174;2023-04-25T03:12:57;97051.78;;;8.55;72.31
19884;BME280;10104;50.732;10.174;2023-04-25T03:15:18;97042.94;;;8.35;72.44
19884;BME280;10104;50.732;10.174;2023-04-25T03:17:40;97047.06;;;8.44;72.86
19884;BME280;10104;50.732;10.174;2023-04-25T03:20:02;97044.66;;;8.49;71.58
19884;BME280;10104;50.732;10.174;2023-04-25T03:22:25;97050.94;;;8.48;71.96
19884;BME280;10104;50.732;10.174;2023-04-25T03:24:46;97047.91;;;8.51;72.61
19884;BME280;10104;50.732;10.174;2023-04-25T03:27:08;97049.59;;;8.65;72.60
19884;BME280;10104;50.732;10.174;2023-04-25T03:29:29;97049.41;;;8.73;70.98
19884;BME280;10104;50.732;10.174;2023-04-25T03:31:51;97050.34;;;8.52;72.13
19884;BME280;10104;50.732;10.174;2023-04-25T03:34:13;97056.84;;;8.50;72.19
19884;BME280;10104;50.732;10.174;2023-04-25T03:36:35;97062.44;;;8.40;73.39
19884;BME280;10104;50.732;10.174;2023-04-25T03:38:57;97062.84;;;8.37;73.43
19884;BME280;10104;50.732;10.174;2023-04-25T03:41:19;97063.09;;;8.15;74.47
19884;BME280;10104;50.732;10.174;2023-04-25T03:43:40;97061.38;;;8.00;75.60
19884;BME280;10104;50.732;10.174;2023-04-25T03:46:01;97066.31;;;7.82;77.68
19884;BME280;10104;50.732;10.174;2023-04-25T03:48:23;97061.63;;;7.78;77.91
19884;BME280;10104;50.732;10.174;2023-04-25T03:50:47;97067.25;;;7.75;78.21
19884;BME280;10104;50.732;10.174;2023-04-25T03:53:08;97058.97;;;7.78;77.95
19884;BME280;10104;50.732;10.174;2023-04-25T03:55:30;97064.09;;;7.86;78.33
19884;BME280;10104;50.732;10.174;2023-04-25T03:57:52;97053.41;;;7.94;77.22
19884;BME280;10104;50.732;10.174;2023-04-25T04:00:13;97067.25;;;8.02;77.35
19884;BME280;10104;50.732;10.174;2023-04-25T04:02:35;97067.00;;;7.97;77.34
19884;BME280;10104;50.732;10.174;2023-04-25T04:04:59;97075.69;;;8.19;76.12
19884;BME280;10104;50.732;10.174;2023-04-25T04:07:20;97064.47;;;8.10;76.57
19884;BME280;10104;50.732;10.174;2023-04-25T04:09:42;97072.28;;;8.25;75.73
19884;BME280;10104;50.732;10.174;2023-04-25T04:12:03;97070.41;;;8.19;75.67
19884;BME280;10104;50.732;10.174;2023-04-25T04:14:25;97071.97;;;8.35;74.99
19884;BME280;10104;50.732;10.174;2023-04-25T04:16:46;97075.44;;;8.42;74.50
19884;BME280;10104;50.732;10.174;2023-04-25T04:19:08;97077.31;;;8.48;74.04
19884;BME280;10104;50.732;10.174;2023-04-25T04:21:29;97075.34;;;8.57;73.27
19884;BME280;10104;50.732;10.174;2023-04-25T04:23:51;97074.13;;;8.59;72.96
19884;BME280;10104;50.732;10.174;2023-04-25T04:26:12;97077.97;;;8.57;72.01
19884;BME280;10104;50.732;10.174;2023-04-25T04:28:34;97072.25;;;8.19;74.56
19884;BME280;10104;50.732;10.174;2023-04-25T04:30:56;97080.28;;;8.32;74.04
19884;BME280;10104;50.732;10.174;2023-04-25T04:33:18;97083.56;;;8.40;73.74
19884;BME280;10104;50.732;10.174;2023-04-25T04:35:41;97082.72;;;8.40;73.80
19884;BME280;10104;50.732;10.174;2023-04-25T04:38:03;97078.75;;;8.50;73.19
19884;BME280;10104;50.732;10.174;2023-04-25T04:40:24;97088.72;;;8.55;73.09
19884;BME280;10104;50.732;10.174;2023-04-25T04:42:46;97090.72;;;8.53;73.02
19884;BME280;10104;50.732;10.174;2023-04-25T04:45:09;97089.78;;;8.67;72.29
19884;BME280;10104;50.732;10.174;2023-04-25T04:47:31;97087.41;;;8.79;71.77
19884;BME280;10104;50.732;10.174;2023-04-25T04:49:53;97088.25;;;8.86;71.88
19884;BME280;10104;50.732;10.174;2023-04-25T04:52:15;97090.53;;;9.02;71.01
19884;BME280;10104;50.732;10.174;2023-04-25T04:54:36;97099.00;;;8.84;72.16
19884;BME280;10104;50.732;10.174;2023-04-25T04:56:58;97099.44;;;8.88;72.28
19884;BME280;10104;50.732;10.174;2023-04-25T04:59:19;97100.69;;;8.99;71.96
19884;BME280;10104;50.732;10.174;2023-04-25T05:01:41;97103.03;;;8.74;73.36
19884;BME280;10104;50.732;10.174;2023-04-25T05:04:03;97103.03;;;8.74;74.21
19884;BME280;10104;50.732;10.174;2023-04-25T05:06:26;97109.72;;;8.70;74.75
19884;BME280;10104;50.732;10.174;2023-04-25T05:08:47;97118.25;;;8.37;74.73
19884;BME280;10104;50.732;10.174;2023-04-25T05:11:10;97119.19;;;8.08;77.39
19884;BME280;10104;50.732;10.174;2023-04-25T05:13:32;97123.47;;;8.31;76.78
19884;BME280;10104;50.732;10.174;2023-04-25T05:15:53;97125.63;;;8.48;76.31
19884;BME280;10104;50.732;10.174;2023-04-25T05:18:15;97127.19;;;8.43;78.36
19884;BME280;10104;50.732;10.174;2023-04-25T05:20:36;97128.06;;;8.91;75.56
19884;BME280;10104;50.732;10.174;2023-04-25T05:22:58;97127.69;;;8.94;72.94
19884;BME280;10104;50.732;10.174;2023-04-25T05:25:19;97128.34;;;8.62;74.60
19884;BME280;10104;50.732;10.174;2023-04-25T05:27:41;97132.63;;;8.35;76.33
19884;BME280;10104;50.732;10.174;2023-04-25T05:30:03;97136.19;;;8.27;77.39
19884;BME280;10104;50.732;10.174;2023-04-25T05:32:24;97144.66;;;8.44;76.66
19884;BME280;10104;50.732;10.174;2023-04-25T05:34:46;97150.44;;;8.61;75.25
19884;BME280;10104;50.732;10.174;2023-04-25T05:37:08;97152.84;;;8.90;73.66
19884;BME280;10104;50.732;10.174;2023-04-25T05:39:29;97149.00;;;8.92;72.21
19884;BME280;10104;50.732;10.174;2023-04-25T05:41:51;97148.88;;;9.07;72.43
19884;BME280;10104;50.732;10.174;2023-04-25T05:44:12;97146.22;;;9.01;70.87
19884;BME280;10104;50.732;10.174;2023-04-25T05:46:34;97160.59;;;8.98;71.62
19884;BME280;10104;50.732;10.174;2023-04-25T05:48:55;97163.34;;;8.83;74.00
19884;BME280;10104;50.732;10.174;2023-04-25T05:51:17;97159.81;;;8.63;70.86
19884;BME280;10104;50.732;10.174;2023-04-25T05:53:39;97162.50;;;8.70;72.08
19884;BME280;10104;50.732;10.174;2023-04-25T05:56:01;97169.78;;;8.68;71.92
19884;BME280;10104;50.732;10.174;2023-04-25T05:58:23;97170.03;;;8.45;70.79
19884;BME280;10104;50.732;10.174;2023-04-25T06:00:44;97168.34;;;8.37;72.67
19884;BME280;10104;50.732;10.174;2023-04-25T06:03:07;97168.47;;;8.29;76.01
19884;BME280;10104;50.732;10.174;2023-04-25T06:05:31;97169.47;;;8.28;74.03
19884;BME280;10104;50.732;10.174;2023-04-25T06:07:52;97166.81;;;8.49;73.01
19884;BME280;10104;50.732;10.174;2023-04-25T06:10:14;97161.78;;;8.55;75.86
19884;BME280;10104;50.732;10.174;2023-04-25T06:12:36;97169.69;;;8.55;75.01
19884;BME280;10104;50.732;10.174;2023-04-25T06:14:57;97172.59;;;8.32;75.71
19884;BME280;10104;50.732;10.174;2023-04-25T06:17:19;97173.19;;;8.34;75.01
19884;BME280;10104;50.732;10.174;2023-04-25T06:19:40;97170.34;;;8.35;75.32
19884;BME280;10104;50.732;10.174;2023-04-25T06:22:02;97178.91;;;8.16;75.70
19884;BME280;10104;50.732;10.174;2023-04-25T06:24:23;97171.91;;;8.02;78.48
19884;BME280;10104;50.732;10.174;2023-04-25T06:26:45;97167.25;;;8.04;77.99
19884;BME280;10104;50.732;10.174;2023-04-25T06:29:06;97170.63;;;7.98;78.10
19884;BME280;10104;50.732;10.174;2023-04-25T06:31:28;97180.94;;;7.93;78.69
19884;BME280;10104;50.732;10.174;2023-04-25T06:33:54;97171.91;;;8.02;78.77
19884;BME280;10104;50.732;10.174;2023-04-25T06:36:16;97165.06;;;7.86;77.31
19884;BME280;10104;50.732;10.174;2023-04-25T06:38:37;97182.69;;;7.86;77.44
19884;BME280;10104;50.732;10.174;2023-04-25T06:40:58;97177.03;;;8.10;75.93
19884;BME280;10104;50.732;10.174;2023-04-25T06:43:20;97175.03;;;8.12;77.06
19884;BME280;10104;50.732;10.174;2023-04-25T06:45:42;97176.22;;;8.09;75.47
19884;BME280;10104;50.732;10.174;2023-04-25T06:48:05;97179.69;;;8.31;76.46
19884;BME280;10104;50.732;10.174;2023-04-25T06:50:26;97177.50;;;8.41;74.74
19884;BME280;10104;50.732;10.174;2023-04-25T06:52:48;97175.38;;;8.51;73.52
19884;BME280;10104;50.732;10.174;2023-04-25T06:55:09;97186.28;;;8.48;73.79
19884;BME280;10104;50.732;10.174;2023-04-25T06:57:31;97188.38;;;8.60;74.38
19884;BME280;10104;50.732;10.174;2023-04-25T06:59:52;97182.84;;;8.48;74.36
19884;BME280;10104;50.732;10.174;2023-04-25T07:02:14;97184.78;;;8.39;76.09
19884;BME280;10104;50.732;10.174;2023-04-25T07:04:35;97186.56;;;8.60;74.58
19884;BME280;10104;50.732;10.174;2023-04-25T07:06:57;97192.81;;;8.52;74.80
19884;BME280;10104;50.732;10.174;2023-04-25T07:09:19;97201.78;;;8.58;74.20
19884;BME280;10104;50.732;10.174;2023-04-25T07:11:41;97198.34;;;8.64;74.51
19884;BME280;10104;50.732;10.174;2023-04-25T07:14:02;97205.00;;;8.53;73.35
19884;BME280;10104;50.732;10.174;2023-04-25T07:16:24;97207.97;;;8.44;74.01
19884;BME280;10104;50.732;10.174;2023-04-25T07:18:45;97209.78;;;8.43;74.31
19884;BME280;10104;50.732;10.174;2023-04-25T07:21:07;97212.47;;;8.29;76.24
19884;BME280;10104;50.732;10.174;2023-04-25T07:23:28;97210.50;;;8.31;77.17
19884;BME280;10104;50.732;10.174;2023-04-25T07:25:50;97211.81;;;8.20;75.98
19884;BME280;10104;50.732;10.174;2023-04-25T07:28:12;97206.97;;;8.02;77.67
19884;BME280;10104;50.732;10.174;2023-04-25T07:30:33;97208.41;;;8.05;80.04
19884;BME280;10104;50.732;10.174;2023-04-25T07:32:56;97206.34;;;8.00;77.75
19884;BME280;10104;50.732;10.174;2023-04-25T07:35:17;97214.81;;;8.17;79.13
19884;BME280;10104;50.732;10.174;2023-04-25T07:37:39;97226.19;;;8.18;78.57
19884;BME280;10104;50.732;10.174;2023-04-25T07:40:03;97221.16;;;8.23;78.15
19884;BME280;10104;50.732;10.174;2023-04-25T07:42:25;97227.06;;;8.25;78.27
19884;BME280;10104;50.732;10.174;2023-04-25T07:44:47;97227.00;;;8.39;77.47
19884;BME280;10104;50.732;10.174;2023-04-25T07:47:09;97236.41;;;8.48;77.27
19884;BME280;10104;50.732;10.174;2023-04-25T07:49:31;97232.28;;;8.39;78.45
19884;BME280;10104;50.732;10.174;2023-04-25T07:51:52;97237.41;;;8.47;77.45
19884;BME280;10104;50.732;10.174;2023-04-25T07:54:14;97239.94;;;8.56;76.54
19884;BME280;10104;50.732;10.174;2023-04-25T07:56:36;97236.88;;;8.59;76.19
19884;BME280;10104;50.732;10.174;2023-04-25T07:59:12;97243.63;;;8.61;75.72
19884;BME280;10104;50.732;10.174;2023-04-25T08:01:34;97246.25;;;8.61;76.68
19884;BME280;10104;50.732;10.174;2023-04-25T08:03:55;97245.97;;;8.49;78.59
19884;BME280;10104;50.732;10.174;2023-04-25T08:06:17;97246.03;;;8.35;78.15
19884;BME280;10104;50.732;10.174;2023-04-25T08:08:39;97245.91;;;8.43;76.89
19884;BME280;10104;50.732;10.174;2023-04-25T08:11:01;97248.50;;;8.36;78.56
19884;BME280;10104;50.732;10.174;2023-04-25T08:13:22;97255.06;;;8.47;78.41
19884;BME280;10104;50.732;10.174;2023-04-25T08:15:44;97259.84;;;8.37;77.90
19884;BME280;10104;50.732;10.174;2023-04-25T08:18:05;97262.34;;;8.24;79.08
19884;BME280;10104;50.732;10.174;2023-04-25T08:20:27;97269.50;;;8.30;79.24
19884;BME280;10104;50.732;10.174;2023-04-25T08:22:48;97273.31;;;8.27;79.54
19884;BME280;10104;50.732;10.174;2023-04-25T08:25:10;97276.25;;;8.32;81.02
19884;BME280;10104;50.732;10.174;2023-04-25T08:27:31;97277.53;;;8.22;81.29
19884;BME280;10104;50.732;10.174;2023-04-25T08:29:53;97275.53;;;8.24;80.64
19884;BME280;10104;50.732;10.174;2023-04-25T08:32:14;97275.03;;;8.13;82.08
19884;BME280;10104;50.732;10.174;2023-04-25T08:34:36;97284.38;;;7.95;83.69
19884;BME280;10104;50.732;10.174;2023-04-25T08:36:59;97287.44;;;7.98;83.54
19884;BME280;10104;50.732;10.174;2023-04-25T08:39:21;97295.81;;;8.02;85.02
19884;BME280;10104;50.732;10.174;2023-04-25T08:41:42;97297.69;;;8.08;84.84
19884;BME280;10104;50.732;10.174;2023-04-25T08:44:06;97299.06;;;8.04;85.84
19884;BME280;10104;50.732;10.174;2023-04-25T08:46:31;97298.19;;;8.18;85.33
19884;BME280;10104;50.732;10.174;2023-04-25T08:48:57;97301.56;;;8.12;85.73
19884;BME280;10104;50.732;10.174;2023-04-25T08:51:25;97304.22;;;8.12;85.94
19884;BME280;10104;50.732;10.174;2023-04-25T08:53:51;97312.97;;;7.98;87.61
19884;BME280;10104;50.732;10.174;2023-04-25T08:56:18;97315.69;;;8.04;87.08
19884;BME280;10104;50.732;10.174;2023-04-25T08:58:41;97317.66;;;8.17;86.84
19884;BME280;10104;50.732;10.174;2023-04-25T09:01:03;97319.88;;;8.35;87.26
19884;BME280;10104;50.732;10.174;2023-04-25T09:03:25;97318.88;;;8.78;85.39
19884;BME280;10104;50.732;10.174;2023-04-25T09:05:47;97323.88;;;9.22;83.05
19884;BME280;10104;50.732;10.174;2023-04-25T09:08:08;97320.38;;;9.50;81.01
19884;BME280;10104;50.732;10.174;2023-04-25T09:10:30;97327.94;;;9.59;78.52
19884;BME280;10104;50.732;10.174;2023-04-25T09:13:06;97325.69;;;9.63;78.74
19884;BME280;10104;50.732;10.174;2023-04-25T09:15:28;97328.19;;;9.71;77.63
19884;BME280;10104;50.732;10.174;2023-04-25T09:17:58;97329.63;;;9.67;75.74
19884;BME280;10104;50.732;10.174;2023-04-25T09:20:20;97335.41;;;9.49;77.34
19884;BME280;10104;50.732;10.174;2023-04-25T09:22:45;97340.97;;;9.61;78.18
19884;BME280;10104;50.732;10.174;2023-04-25T09:25:11;97342.31;;;9.91;76.80
19884;BME280;10104;50.732;10.174;2023-04-25T09:27:33;97335.81;;;10.48;73.38
19884;BME280;10104;50.732;10.174;2023-04-25T09:29:58;97352.97;;;10.91;70.32
19884;BME280;10104;50.732;10.174;2023-04-25T09:32:24;97352.13;;;11.30;68.52
19884;BME280;10104;50.732;10.174;2023-04-25T09:34:50;97352.53;;;11.47;65.82
19884;BME280;10104;50.732;10.174;2023-04-25T09:37:20;97346.25;;;11.22;66.06
19884;BME280;10104;50.732;10.174;2023-04-25T09:39:44;97338.59;;;11.85;64.64
19884;BME280;10104;50.732;10.174;2023-04-25T09:42:09;97335.84;;;12.04;62.20
19884;BME280;10104;50.732;10.174;2023-04-25T09:44:30;97332.63;;;11.96;60.85
19884;BME280;10104;50.732;10.174;2023-04-25T09:46:52;97340.97;;;11.93;60.89
19884;BME280;10104;50.732;10.174;2023-04-25T09:49:14;97338.22;;;12.57;58.60
19884;BME280;10104;50.732;10.174;2023-04-25T09:51:36;97336.78;;;13.11;55.19
19884;BME280;10104;50.732;10.174;2023-04-25T09:53:57;97332.50;;;13.34;54.18
19884;BME280;10104;50.732;10.174;2023-04-25T09:56:19;97330.03;;;13.58;51.30
19884;BME280;10104;50.732;10.174;2023-04-25T09:58:41;97338.16;;;13.45;51.15
19884;BME280;10104;50.732;10.174;2023-04-25T10:01:05;97339.81;;;13.64;52.69
19884;BME280;10104;50.732;10.174;2023-04-25T10:03:29;97330.66;;;13.35;51.21
19884;BME280;10104;50.732;10.174;2023-04-25T10:05:52;97335.06;;;13.23;50.75
19884;BME280;10104;50.732;10.174;2023-04-25T10:08:16;97337.84;;;12.78;51.96
19884;BME280;10104;50.732;10.174;2023-04-25T10:10:39;97336.56;;;13.19;50.57
19884;BME280;10104;50.732;10.174;2023-04-25T10:13:05;97335.47;;;13.26;50.88
19884;BME280;10104;50.732;10.174;2023-04-25T10:15:27;97339.13;;;13.50;49.24
19884;BME280;10104;50.732;10.174;2023-04-25T10:17:50;97346.28;;;13.50;49.81
19884;BME280;10104;50.732;10.174;2023-04-25T10:20:12;97346.22;;;13.56;48.61
19884;BME280;10104;50.732;10.174;2023-04-25T10:22:37;97352.66;;;13.67;48.45
19884;BME280;10104;50.732;10.174;2023-04-25T10:24:59;97352.72;;;13.60;49.21
19884;BME280;10104;50.732;10.174;2023-04-25T10:27:21;97349.72;;;13.32;49.22
19884;BME280;10104;50.732;10.174;2023-04-25T10:29:43;97347.84;;;13.14;49.60
19884;BME280;10104;50.732;10.174;2023-04-25T10:32:05;97348.66;;;12.83;49.93
19884;BME280;10104;50.732;10.174;2023-04-25T10:34:43;97349.34;;;12.03;50.93
19884;BME280;10104;50.732;10.174;2023-04-25T10:37:09;97356.97;;;11.66;54.78
19884;BME280;10104;50.732;10.174;2023-04-25T10:39:32;97360.88;;;11.51;54.92
19884;BME280;10104;50.732;10.174;2023-04-25T10:41:56;97369.66;;;11.12;55.23
19884;BME280;10104;50.732;10.174;2023-04-25T10:44:18;97384.09;;;10.63;55.51
19884;BME280;10104;50.732;10.174;2023-04-25T10:46:40;97392.75;;;10.31;56.35
19884;BME280;10104;50.732;10.174;2023-04-25T10:49:02;97394.78;;;10.22;57.80
19884;BME280;10104;50.732;10.174;2023-04-25T10:51:31;97387.94;;;10.47;58.40
19884;BME280;10104;50.732;10.174;2023-04-25T10:54:17;97384.53;;;11.13;55.63
19884;BME280;10104;50.732;10.174;2023-04-25T10:56:41;97383.28;;;11.55;56.93
19884;BME280;10104;50.732;10.174;2023-04-25T10:59:10;97386.75;;;11.82;55.36
19884;BME280;10104;50.732;10.174;2023-04-25T11:01:38;97389.25;;;12.28;56.02
19884;BME280;10104;50.732;10.174;2023-04-25T11:04:00;97386.97;;;12.31;54.99
19884;BME280;10104;50.732;10.174;2023-04-25T11:09:10;97386.59;;;12.28;51.96
19884;BME280;10104;50.732;10.174;2023-04-25T11:11:36;97391.38;;;11.99;51.32
19884;BME280;10104;50.732;10.174;2023-04-25T11:13:58;97386.53;;;11.90;50.68
19884;BME280;10104;50.732;10.174;2023-04-25T11:16:19;97400.00;;;11.75;51.36
19884;BME280;10104;50.732;10.174;2023-04-25T11:18:48;97390.63;;;11.66;51.54
19884;BME280;10104;50.732;10.174;2023-04-25T11:21:11;97391.47;;;11.60;51.93
19884;BME280;10104;50.732;10.174;2023-04-25T11:23:32;97388.59;;;11.74;50.71
19884;BME280;10104;50.732;10.174;2023-04-25T11:25:54;97395.50;;;11.69;50.77
19884;BME280;10104;50.732;10.174;2023-04-25T11:28:21;97395.09;;;11.72;49.56
19884;BME280;10104;50.732;10.174;2023-04-25T11:30:49;97404.66;;;11.93;49.37
19884;BME280;10104;50.732;10.174;2023-04-25T11:33:13;97410.16;;;11.91;49.62
19884;BME280;10104;50.732;10.174;2023-04-25T11:35:35;97400.94;;;12.13;47.59
19884;BME280;10104;50.732;10.174;2023-04-25T11:37:56;97410.34;;;12.54;48.01
19884;BME280;10104;50.732;10.174;2023-04-25T11:40:18;97409.00;;;12.76;46.69
19884;BME280;10104;50.732;10.174;2023-04-25T11:42:46;97409.63;;;12.72;46.55
19884;BME280;10104;50.732;10.174;2023-04-25T11:45:08;97414.69;;;12.80;43.35
19884;BME280;10104;50.732;10.174;2023-04-25T11:47:32;97412.25;;;13.10;44.27
19884;BME280;10104;50.732;10.174;2023-04-25T11:49:53;97413.97;;;13.29;43.40
19884;BME280;10104;50.732;10.174;2023-04-25T11:52:15;97414.03;;;13.47;42.93
19884;BME280;10104;50.732;10.174;2023-04-25T11:54:37;97411.47;;;13.59;42.12
19884;BME280;10104;50.732;10.174;2023-04-25T11:56:59;97428.13;;;13.48;42.46
19884;BME280;10104;50.732;10.174;2023-04-25T11:59:24;97420.50;;;13.33;43.55
19884;BME280;10104;50.732;10.174;2023-04-25T12:01:49;97420.22;;;13.41;42.98
19884;BME280;10104;50.732;10.174;2023-04-25T12:06:37;97429.44;;;13.39;41.42
19884;BME280;10104;50.732;10.174;2023-04-25T12:09:04;97435.06;;;13.73;43.23
19884;BME280;10104;50.732;10.174;2023-04-25T12:11:26;97440.34;;;13.55;41.99
19884;BME280;10104;50.732;10.174;2023-04-25T12:13:51;97435.59;;;13.64;42.41
19884;BME280;10104;50.732;10.174;2023-04-25T12:16:14;97431.66;;;13.17;42.25
19884;BME280;10104;50.732;10.174;2023-04-25T12:18:36;97435.09;;;13.24;42.37
19884;BME280;10104;50.732;10.174;2023-04-25T12:20:57;97430.84;;;13.10;42.61
19884;BME280;10104;50.732;10.174;2023-04-25T12:23:28;97433.59;;;13.28;43.25
19884;BME280;10104;50.732;10.174;2023-04-25T12:25:50;97433.19;;;13.00;41.90
19884;BME280;10104;50.732;10.174;2023-04-25T12:28:23;97436.78;;;13.12;43.49
19884;BME280;10104;50.732;10.174;2023-04-25T12:31:02;97436.09;;;12.91;42.58
19884;BME280;10104;50.732;10.174;2023-04-25T12:33:26;97432.84;;;13.21;43.01
19884;BME280;10104;50.732;10.174;2023-04-25T12:35:48;97431.91;;;13.58;42.93
19884;BME280;10104;50.732;10.174;2023-04-25T12:38:09;97430.88;;;13.84;41.69